Terminal Aerodrome Forecast
Issued by NWS Louisville, KY

Home | Current Version | Previous Version | Text Only | Print | Product List | Glossary On
Versions: 1 2 3 4 5 6 7 8 9 10 11 12 13 14 15 16 17 18 19
000
FTUS43 KLMK 260520
TAFBWG
TAF
KBWG 260520Z 2606/2706 17010G16KT P6SM VCSH BKN050
      TEMPO 2606/2608 5SM -SHRA BR SCT025 BKN035
     FM261100 19008KT P6SM VCSH BKN021
     FM261700 21012G19KT P6SM BKN050
     FM262300 21004KT P6SM BKN090=

USA.gov is the U.S. government's official web portal to all federal, state and local government web resources and services.